Time;durP1;ratioP1;P1;durP2;ratioP2;P2;SDS_P1;SDS_P2;PMS_P1;PMS_P2;Temp;Humidity;BMP_temperature;BMP_pressure;BME280_temperature;BME280_humidity;BME280_pressure;Samples;Min_cycle;Max_cycle;Signal;HPM_P1;HPM_P2
2021/04/26 00:01:50;;;;;;;15.50;4.35;;;5.70;63.50;;;;;;5092958;28;20020;-36
2021/04/26 00:04:16;;;;;;;6.53;3.50;;;5.60;62.80;;;;;;5092936;28;20024;-37
2021/04/26 00:06:42;;;;;;;5.97;3.67;;;5.80;61.00;;;;;;5095351;28;20055;-36
2021/04/26 00:09:08;;;;;;;10.90;5.60;;;5.90;60.50;;;;;;5096517;28;20028;-36
2021/04/26 00:11:34;;;;;;;10.30;4.28;;;6.00;59.60;;;;;;5096461;28;20024;-36
2021/04/26 00:14:00;;;;;;;9.35;3.92;;;5.80;59.80;;;;;;5096696;28;20028;-36
2021/04/26 00:16:25;;;;;;;6.15;3.28;;;5.80;59.70;;;;;;5096691;28;20032;-36
2021/04/26 00:18:51;;;;;;;7.18;4.22;;;5.80;59.90;;;;;;5096539;28;20067;-36
2021/04/26 00:21:17;;;;;;;7.35;4.88;;;5.80;59.60;;;;;;5096429;28;20108;-36
2021/04/26 00:23:42;;;;;;;11.75;5.82;;;5.70;59.80;;;;;;5096604;28;20110;-36
2021/04/26 00:26:09;;;;;;;8.38;4.00;;;5.80;59.50;;;;;;5096415;28;20023;-37
2021/04/26 00:28:35;;;;;;;10.38;6.40;;;5.80;59.50;;;;;;5096664;28;20468;-36
2021/04/26 00:31:02;;;;;;;6.43;3.25;;;5.80;59.40;;;;;;5096466;28;20038;-36
2021/04/26 00:33:28;;;;;;;9.23;3.55;;;5.80;59.30;;;;;;5096580;28;20380;-37
2021/04/26 00:35:54;;;;;;;6.78;3.22;;;5.90;58.50;;;;;;5096374;28;20467;-37
2021/04/26 00:38:19;;;;;;;12.63;3.80;;;5.80;58.90;;;;;;5096483;28;20024;-37
2021/04/26 00:40:45;;;;;;;6.85;2.78;;;5.80;58.70;;;;;;5095219;28;20055;-36
2021/04/26 00:43:11;;;;;;;9.38;3.47;;;5.80;58.50;;;;;;5096566;28;20039;-36
2021/04/26 00:45:42;;;;;;;10.18;3.42;;;5.70;58.90;;;;;;5096513;28;20024;-35
2021/04/26 00:48:08;;;;;;;6.28;3.20;;;5.70;59.00;;;;;;5096871;28;20020;-35
2021/04/26 00:50:34;;;;;;;5.30;3.60;;;5.50;59.10;;;;;;5095803;28;20040;-37
2021/04/26 00:53:03;;;;;;;12.10;3.67;;;5.40;59.70;;;;;;5096077;28;20039;-37
2021/04/26 00:55:32;;;;;;;10.98;3.75;;;5.30;59.90;;;;;;5096009;28;20492;-37
2021/04/26 00:57:58;;;;;;;5.95;2.55;;;5.30;60.00;;;;;;5095627;28;20028;-37
2021/04/26 01:00:24;;;;;;;4.97;3.17;;;5.40;59.60;;;;;;5094179;28;20028;-37
2021/04/26 01:02:50;;;;;;;8.05;2.97;;;5.40;59.80;;;;;;5095475;28;20020;-36
2021/04/26 01:05:21;;;;;;;4.65;2.95;;;5.40;59.70;;;;;;5095494;28;20074;-36
2021/04/26 01:07:47;;;;;;;5.85;3.08;;;5.30;59.60;;;;;;5095556;28;20498;-36
2021/04/26 01:10:16;;;;;;;5.68;3.03;;;5.30;59.70;;;;;;5094147;28;20024;-37
2021/04/26 01:13:14;;;;;;;9.68;3.03;;;5.30;59.90;;;;;;5094050;28;20028;-36
2021/04/26 01:15:45;;;;;;;8.60;3.55;;;5.20;60.20;;;;;;5095838;28;20024;-37
2021/04/26 01:18:31;;;;;;;9.80;4.63;;;5.20;59.90;;;;;;5095045;28;20545;-36
2021/04/26 01:21:18;;;;;;;6.78;3.65;;;5.20;59.90;;;;;;5095679;28;20054;-36
2021/04/26 01:24:22;;;;;;;9.93;4.38;;;5.10;60.00;;;;;;5095189;28;20016;-36
2021/04/26 01:26:57;;;;;;;8.27;3.35;;;5.20;59.90;;;;;;5095298;28;20020;-36
2021/04/26 01:29:36;;;;;;;6.60;3.78;;;5.10;60.10;;;;;;5095379;28;20028;-36
2021/04/26 01:32:16;;;;;;;6.18;3.42;;;5.00;60.40;;;;;;5095406;28;20032;-36
2021/04/26 01:34:44;;;;;;;10.15;3.28;;;5.10;60.40;;;;;;5093735;28;20392;-36
2021/04/26 01:37:10;;;;;;;6.07;2.58;;;5.10;60.50;;;;;;5095115;28;20415;-36
2021/04/26 01:39:37;;;;;;;7.00;3.90;;;5.10;60.10;;;;;;5094735;28;20028;-36
2021/04/26 01:42:04;;;;;;;5.78;3.38;;;5.10;60.20;;;;;;5094770;28;20083;-36
2021/04/26 01:44:31;;;;;;;7.72;3.08;;;5.10;60.10;;;;;;5094602;28;20027;-36
2021/04/26 01:46:58;;;;;;;3.28;2.58;;;5.00;60.30;;;;;;5095559;28;20030;-36
2021/04/26 01:49:25;;;;;;;5.00;3.20;;;5.10;60.10;;;;;;5094834;28;20047;-35
2021/04/26 01:51:51;;;;;;;8.43;3.17;;;5.00;60.50;;;;;;5095055;28;20025;-36
2021/04/26 01:54:17;;;;;;;6.32;3.53;;;4.90;61.00;;;;;;5094532;28;20031;-36
2021/04/26 01:56:43;;;;;;;8.63;3.13;;;5.00;60.70;;;;;;5094669;28;20111;-36
2021/04/26 01:59:10;;;;;;;5.65;2.92;;;5.00;60.70;;;;;;5094666;28;20425;-36
2021/04/26 02:01:37;;;;;;;5.38;2.83;;;4.90;60.80;;;;;;5093241;28;20472;-36
2021/04/26 02:04:05;;;;;;;5.18;3.00;;;4.90;60.60;;;;;;5094431;28;20055;-36
2021/04/26 02:06:32;;;;;;;4.03;2.38;;;5.00;60.50;;;;;;5094415;28;20020;-36
2021/04/26 02:09:00;;;;;;;4.15;2.00;;;4.90;60.80;;;;;;5094490;28;20016;-35
2021/04/26 02:11:27;;;;;;;7.90;2.67;;;4.90;60.90;;;;;;5092999;28;20423;-35
2021/04/26 02:13:54;;;;;;;14.23;2.90;;;4.90;60.80;;;;;;5094436;28;20024;-36
2021/04/26 02:16:20;;;;;;;4.05;2.42;;;4.80;60.90;;;;;;5094361;28;20023;-35
2021/04/26 02:18:46;;;;;;;5.30;3.00;;;4.80;61.20;;;;;;5094128;28;20020;-35
2021/04/26 02:21:12;;;;;;;6.57;2.85;;;4.80;61.20;;;;;;5094071;28;20051;-36
2021/04/26 02:23:38;;;;;;;5.80;3.22;;;4.80;61.30;;;;;;5094538;28;20020;-36
2021/04/26 02:26:04;;;;;;;6.93;2.90;;;4.90;61.10;;;;;;5094999;28;20050;-35
2021/04/26 02:28:30;;;;;;;6.10;2.28;;;4.80;60.90;;;;;;5094922;28;20028;-36
2021/04/26 02:30:58;;;;;;;5.55;2.65;;;4.80;61.00;;;;;;5093550;28;20464;-36
2021/04/26 02:33:43;;;;;;;9.90;3.10;;;4.80;61.00;;;;;;5094107;28;20032;-36
2021/04/26 02:36:36;;;;;;;7.13;2.58;;;4.80;61.30;;;;;;5094032;28;20028;-35
2021/04/26 02:39:07;;;;;;;6.35;3.40;;;4.70;61.50;;;;;;5093751;28;20043;-35
2021/04/26 02:41:35;;;;;;;;;;;4.60;61.70;;;;;;5094590;28;20486;-35
2021/04/26 02:44:03;;;;;;;4.07;2.85;;;4.60;61.80;;;;;;5092735;28;20068;-35
2021/04/26 02:46:33;;;;;;;7.28;3.40;;;4.60;61.80;;;;;;5092600;28;20035;-36
2021/04/26 02:49:01;;;;;;;4.32;2.75;;;4.50;62.10;;;;;;5093840;28;20135;-36
2021/04/26 02:51:32;;;;;;;8.70;2.97;;;4.50;62.20;;;;;;5092620;28;20063;-36
2021/04/26 02:54:01;;;;;;;5.22;3.25;;;4.50;62.50;;;;;;5094237;28;20016;-36
2021/04/26 02:56:27;;;;;;;3.28;2.17;;;4.50;62.20;;;;;;5093699;28;20020;-35
2021/04/26 02:58:56;;;;;;;4.57;2.95;;;4.40;62.70;;;;;;5094090;28;20368;-35
2021/04/26 03:01:22;;;;;;;7.18;2.60;;;4.40;62.80;;;;;;5093501;28;20035;-35
2021/04/26 03:03:49;;;;;;;4.18;2.65;;;4.40;62.80;;;;;;5094173;28;20020;-35
2021/04/26 03:06:15;;;;;;;8.00;2.95;;;4.50;62.50;;;;;;5093453;28;20016;-35
2021/04/26 03:08:42;;;;;;;5.07;2.53;;;4.40;62.40;;;;;;5093511;28;20021;-35
2021/04/26 03:11:09;;;;;;;4.13;2.10;;;4.50;62.40;;;;;;5093395;28;20032;-35
2021/04/26 03:13:36;;;;;;;9.18;2.83;;;4.40;62.90;;;;;;5093641;28;20510;-35
2021/04/26 03:16:03;;;;;;;4.13;2.60;;;4.40;62.80;;;;;;5093459;28;20173;-35
2021/04/26 03:18:29;;;;;;;5.80;2.45;;;4.40;63.00;;;;;;5093326;28;20389;-36
2021/04/26 03:20:57;;;;;;;2.42;1.77;;;4.40;62.80;;;;;;5093552;28;20495;-36
2021/04/26 03:23:25;;;;;;;7.57;3.20;;;4.40;63.00;;;;;;5093554;28;20460;-35
2021/04/26 03:25:54;;;;;;;6.68;2.55;;;4.40;62.80;;;;;;5093161;28;20021;-35
2021/04/26 03:28:21;;;;;;;6.10;2.40;;;4.30;63.00;;;;;;5093222;28;20410;-35
2021/04/26 03:30:47;;;;;;;7.63;2.05;;;4.30;63.40;;;;;;5093219;28;20020;-35
2021/04/26 03:33:14;;;;;;;7.38;3.20;;;4.30;63.20;;;;;;5092425;28;20101;-35
2021/04/26 03:35:41;;;;;;;5.03;2.15;;;4.40;63.10;;;;;;5093117;28;20498;-35
2021/04/26 03:38:07;;;;;;;6.25;2.55;;;4.30;63.10;;;;;;5093098;28;20533;-36
2021/04/26 03:40:33;;;;;;;4.13;2.70;;;4.30;63.20;;;;;;5093730;28;20020;-36
2021/04/26 03:43:00;;;;;;;4.13;2.40;;;4.20;63.70;;;;;;5097179;28;20095;-36
2021/04/26 03:45:27;;;;;;;3.72;2.38;;;4.20;63.60;;;;;;5097239;28;20024;-36
2021/04/26 03:47:54;;;;;;;3.40;2.55;;;4.30;63.80;;;;;;5097890;28;20077;-36
2021/04/26 03:50:21;;;;;;;6.63;2.90;;;4.20;63.80;;;;;;5097092;28;20131;-36
2021/04/26 03:52:50;;;;;;;5.60;2.45;;;4.20;64.00;;;;;;5097370;28;20400;-36
2021/04/26 03:55:24;;;;;;;3.75;2.58;;;4.20;64.30;;;;;;5096946;28;20051;-36
2021/04/26 03:57:50;;;;;;;3.78;2.78;;;4.20;64.00;;;;;;5097007;28;20082;-36
2021/04/26 04:00:19;;;;;;;4.32;2.80;;;4.10;64.20;;;;;;5096796;28;20039;-36
2021/04/26 04:02:48;;;;;;;8.02;2.78;;;4.10;64.30;;;;;;5096564;28;20070;-36
2021/04/26 04:05:14;;;;;;;3.85;2.20;;;4.10;64.60;;;;;;5096632;28;20036;-36
2021/04/26 04:07:41;;;;;;;5.72;2.63;;;4.10;64.40;;;;;;5096936;28;20484;-36
2021/04/26 04:10:09;;;;;;;5.40;2.60;;;4.20;64.30;;;;;;5096751;28;20027;-36
2021/04/26 04:12:35;;;;;;;4.00;2.63;;;4.10;64.40;;;;;;5096414;28;20104;-35
2021/04/26 04:15:01;;;;;;;4.45;2.45;;;4.00;64.80;;;;;;5096633;28;20035;-35
2021/04/26 04:17:27;;;;;;;4.97;3.10;;;3.90;65.00;;;;;;5096695;28;20024;-35
2021/04/26 04:19:53;;;;;;;4.80;2.83;;;3.90;65.10;;;;;;5095239;28;20020;-35
2021/04/26 04:22:19;;;;;;;5.70;3.10;;;3.80;65.40;;;;;;5096510;28;20524;-35
2021/04/26 04:24:44;;;;;;;4.38;2.38;;;3.90;65.40;;;;;;5096489;28;20020;-36
2021/04/26 04:27:10;;;;;;;5.63;3.55;;;3.80;65.50;;;;;;5096563;28;20016;-35
2021/04/26 04:29:36;;;;;;;5.85;2.60;;;3.90;65.70;;;;;;5096651;28;20028;-35
2021/04/26 04:32:02;;;;;;;7.95;2.85;;;4.10;65.00;;;;;;5096319;28;20035;-36
2021/04/26 04:34:28;;;;;;;5.75;2.50;;;4.10;65.00;;;;;;5096620;28;20074;-35
2021/04/26 04:36:53;;;;;;;3.42;2.63;;;4.10;65.00;;;;;;5096236;28;20476;-35
2021/04/26 04:39:19;;;;;;;8.05;3.22;;;4.00;65.30;;;;;;5096326;28;20028;-35
2021/04/26 04:41:45;;;;;;;3.67;2.83;;;4.10;65.40;;;;;;5095919;28;20072;-35
2021/04/26 04:44:10;;;;;;;7.57;3.08;;;3.90;65.40;;;;;;5096157;28;20028;-36
2021/04/26 04:46:36;;;;;;;7.60;2.88;;;3.80;65.80;;;;;;5096214;28;20027;-35
2021/04/26 04:49:02;;;;;;;6.05;2.78;;;3.90;65.60;;;;;;5095564;28;20048;-36
2021/04/26 04:51:28;;;;;;;4.45;3.05;;;3.90;65.70;;;;;;5095678;28;20020;-35
2021/04/26 04:53:54;;;;;;;6.03;2.97;;;4.00;65.50;;;;;;5094876;28;20040;-35
2021/04/26 04:56:20;;;;;;;3.90;2.72;;;3.90;65.70;;;;;;5095919;28;20028;-36
2021/04/26 04:58:45;;;;;;;5.50;3.20;;;4.00;65.70;;;;;;5096370;28;20364;-36
2021/04/26 05:01:12;;;;;;;4.40;2.50;;;3.90;65.80;;;;;;5095691;28;20039;-36
2021/04/26 05:03:37;;;;;;;4.80;2.42;;;4.00;65.90;;;;;;5095074;28;20099;-36
2021/04/26 05:06:03;;;;;;;5.18;2.75;;;3.90;66.00;;;;;;5095628;28;20150;-36
2021/04/26 05:08:29;;;;;;;7.32;3.45;;;3.90;66.10;;;;;;5095647;28;20114;-36
2021/04/26 05:10:54;;;;;;;12.70;3.45;;;3.90;66.30;;;;;;5095453;28;20028;-36
2021/04/26 05:13:20;;;;;;;7.43;3.13;;;4.10;66.30;;;;;;5095600;28;20028;-36
2021/04/26 05:15:46;;;;;;;7.32;3.15;;;4.10;66.20;;;;;;5095337;28;20035;-36
2021/04/26 05:18:12;;;;;;;7.05;3.85;;;4.20;65.80;;;;;;5095665;28;20028;-36
2021/04/26 05:20:40;;;;;;;12.82;3.53;;;4.10;66.10;;;;;;5095016;28;20028;-36
2021/04/26 05:23:06;;;;;;;9.65;3.70;;;4.10;66.00;;;;;;5095594;28;20135;-41
2021/04/26 05:25:32;;;;;;;11.95;3.28;;;3.90;66.70;;;;;;5094928;28;20107;-36
2021/04/26 05:27:57;;;;;;;10.05;3.22;;;3.90;66.70;;;;;;5094960;28;20016;-36
2021/04/26 05:30:23;;;;;;;8.25;3.75;;;4.10;66.20;;;;;;5094943;28;20074;-36
2021/04/26 05:32:49;;;;;;;13.95;3.95;;;4.10;66.20;;;;;;5095120;28;20387;-36
2021/04/26 05:35:14;;;;;;;8.40;3.67;;;4.20;65.70;;;;;;5095201;28;20016;-37
2021/04/26 05:37:40;;;;;;;8.98;3.90;;;4.30;65.30;;;;;;5094915;28;20102;-36
2021/04/26 05:40:06;;;;;;;6.65;3.17;;;4.30;65.40;;;;;;5094774;28;20032;-36
2021/04/26 05:42:33;;;;;;;6.55;3.33;;;4.30;65.30;;;;;;5093539;28;20023;-36
2021/04/26 05:44:59;;;;;;;5.20;3.25;;;4.50;64.40;;;;;;5093587;28;20380;-36
2021/04/26 05:47:25;;;;;;;5.57;3.22;;;4.40;64.60;;;;;;5094623;28;20016;-36
2021/04/26 05:49:50;;;;;;;7.63;3.05;;;4.40;64.80;;;;;;5094386;28;20055;-37
2021/04/26 05:52:16;;;;;;;31.08;7.13;;;4.50;64.60;;;;;;5094612;28;20032;-37
2021/04/26 05:54:42;;;;;;;12.52;3.38;;;4.50;64.30;;;;;;5094415;28;20036;-36
2021/04/26 05:57:10;;;;;;;9.13;3.60;;;4.70;63.70;;;;;;5094152;28;20480;-36
2021/04/26 05:59:36;;;;;;;10.95;5.38;;;4.80;63.10;;;;;;5094137;28;20039;-36
2021/04/26 06:02:02;;;;;;;7.50;3.15;;;4.80;62.70;;;;;;5095591;28;20020;-36
2021/04/26 06:04:28;;;;;;;13.40;3.22;;;4.80;62.20;;;;;;5094335;28;20393;-37
2021/04/26 06:06:54;;;;;;;5.63;2.72;;;4.90;62.40;;;;;;5094067;28;20104;-35
2021/04/26 06:09:20;;;;;;;6.38;2.92;;;5.00;62.50;;;;;;5092673;28;20106;-35
2021/04/26 06:11:45;;;;;;;4.18;2.47;;;5.10;61.90;;;;;;5093856;28;20110;-36
2021/04/26 06:14:11;;;;;;;8.90;2.90;;;5.30;60.90;;;;;;5093680;28;20106;-36
2021/04/26 06:16:37;;;;;;;5.88;2.80;;;5.40;60.70;;;;;;5093882;28;20023;-36
2021/04/26 06:19:04;;;;;;;5.68;3.10;;;5.40;60.70;;;;;;5094066;28;20051;-36
2021/04/26 06:21:30;;;;;;;3.38;2.60;;;5.40;60.50;;;;;;5093818;28;20024;-36
2021/04/26 06:23:55;;;;;;;11.23;3.70;;;5.50;59.70;;;;;;5093841;28;20020;-35
2021/04/26 06:26:21;;;;;;;6.15;3.20;;;5.60;59.60;;;;;;5093887;28;20435;-35
2021/04/26 06:28:47;;;;;;;8.32;3.78;;;5.60;59.80;;;;;;5093697;28;20027;-35
2021/04/26 06:31:13;;;;;;;9.30;3.35;;;5.70;59.50;;;;;;5092125;28;20024;-37
2021/04/26 06:33:39;;;;;;;6.20;3.13;;;5.70;58.90;;;;;;5094130;28;20452;-35
2021/04/26 06:36:05;;;;;;;5.05;4.07;;;5.60;59.90;;;;;;5092457;28;20024;-36
2021/04/26 06:38:32;;;;;;;7.75;3.63;;;5.70;59.90;;;;;;5093522;28;20030;-36
2021/04/26 06:40:58;;;;;;;7.43;3.65;;;5.80;59.40;;;;;;5093284;28;20098;-36
2021/04/26 06:43:24;;;;;;;8.07;3.45;;;6.00;58.90;;;;;;5093295;28;20060;-36
2021/04/26 06:45:49;;;;;;;5.13;3.05;;;6.00;58.50;;;;;;5093970;28;20043;-37
2021/04/26 06:48:17;;;;;;;7.82;3.35;;;6.00;58.20;;;;;;5093467;28;20419;-36
2021/04/26 06:50:44;;;;;;;6.95;2.75;;;6.20;58.10;;;;;;5092094;28;20563;-36
2021/04/26 06:53:10;;;;;;;10.38;3.63;;;6.50;56.70;;;;;;5093808;28;20028;-36
2021/04/26 06:55:36;;;;;;;7.50;4.05;;;7.10;55.50;;;;;;5093612;28;20024;-38
2021/04/26 06:58:02;;;;;;;7.03;2.95;;;7.60;53.60;;;;;;5092300;28;20028;-38
2021/04/26 07:00:28;;;;;;;5.38;3.15;;;7.70;53.50;;;;;;5094638;28;20353;-37
2021/04/26 07:02:55;;;;;;;8.60;3.95;;;7.60;52.60;;;;;;5093425;28;20108;-37
2021/04/26 07:05:21;;;;;;;6.82;3.53;;;7.60;52.80;;;;;;5093810;28;20031;-37
2021/04/26 07:07:47;;;;;;;5.15;3.17;;;7.80;52.90;;;;;;5092933;28;20020;-37
2021/04/26 07:10:14;;;;;;;8.18;4.72;;;8.00;52.30;;;;;;5093450;28;20573;-36
2021/04/26 07:12:40;;;;;;;9.65;3.15;;;7.90;52.20;;;;;;5091918;28;20567;-37
2021/04/26 07:15:08;;;;;;;6.00;3.75;;;7.30;53.70;;;;;;5092666;28;20472;-37
2021/04/26 07:17:34;;;;;;;3.90;3.00;;;7.50;53.30;;;;;;5093483;28;20024;-37
2021/04/26 07:20:07;;;;;;;7.47;3.20;;;7.50;53.70;;;;;;5093269;28;20028;-37
2021/04/26 07:22:32;;;;;;;13.20;3.70;;;7.90;53.10;;;;;;5093207;28;20026;-37
2021/04/26 07:24:58;;;;;;;8.27;3.72;;;8.10;51.50;;;;;;5093205;28;20099;-36
2021/04/26 07:27:24;;;;;;;7.05;3.80;;;7.70;51.70;;;;;;5091480;28;20028;-36
2021/04/26 07:29:50;;;;;;;9.15;3.85;;;8.10;51.20;;;;;;5091263;28;20086;-36
2021/04/26 07:32:16;;;;;;;6.85;3.15;;;8.00;51.50;;;;;;5092680;28;20032;-37
2021/04/26 07:34:42;;;;;;;14.15;3.60;;;8.30;50.40;;;;;;5092195;28;20040;-36
2021/04/26 07:37:07;;;;;;;5.75;3.55;;;8.50;50.10;;;;;;5092705;28;20034;-36
2021/04/26 07:39:33;;;;;;;11.75;3.53;;;8.50;48.50;;;;;;5092648;28;20160;-37
2021/04/26 07:42:00;;;;;;;9.77;4.18;;;8.60;48.50;;;;;;5092885;28;20436;-36
2021/04/26 07:44:26;;;;;;;8.70;4.55;;;8.90;48.20;;;;;;5092834;28;20479;-37
2021/04/26 07:46:53;;;;;;;7.75;4.60;;;9.20;47.10;;;;;;5092904;28;20103;-37
2021/04/26 07:49:19;;;;;;;13.07;4.85;;;9.10;46.60;;;;;;5092172;28;20080;-37
2021/04/26 07:51:44;;;;;;;16.83;4.45;;;9.50;46.20;;;;;;5092156;28;20062;-36
2021/04/26 07:54:10;;;;;;;9.63;3.47;;;9.80;45.10;;;;;;5092408;28;20460;-36
2021/04/26 07:56:36;;;;;;;12.88;3.88;;;9.80;44.50;;;;;;5092848;28;20063;-37
2021/04/26 07:59:02;;;;;;;5.25;3.05;;;10.20;43.40;;;;;;5090681;28;20482;-38
2021/04/26 08:01:28;;;;;;;5.30;3.25;;;10.50;41.90;;;;;;5092181;28;20032;-37
2021/04/26 08:03:53;;;;;;;5.93;3.17;;;10.60;42.20;;;;;;5092393;28;20020;-37
2021/04/26 08:06:19;;;;;;;7.60;3.75;;;10.80;41.30;;;;;;5092589;28;20130;-37
2021/04/26 08:08:45;;;;;;;7.60;3.13;;;10.60;41.90;;;;;;5092639;28;20020;-37
2021/04/26 08:11:11;;;;;;;7.55;3.50;;;11.70;38.30;;;;;;5092782;28;20020;-37
2021/04/26 08:13:36;;;;;;;8.25;3.78;;;11.40;38.60;;;;;;5092499;28;20081;-36
2021/04/26 08:16:02;;;;;;;9.70;3.08;;;11.60;38.20;;;;;;5092505;28;20054;-37
2021/04/26 08:18:29;;;;;;;5.10;2.95;;;11.60;36.50;;;;;;5092586;28;20024;-36
2021/04/26 08:20:55;;;;;;;3.78;2.55;;;11.90;36.70;;;;;;5092365;28;20024;-37
2021/04/26 08:23:20;;;;;;;4.22;2.47;;;12.10;35.70;;;;;;5092414;28;20077;-37
2021/04/26 08:25:46;;;;;;;5.25;2.10;;;12.80;33.80;;;;;;5091730;28;20027;-37
2021/04/26 08:28:14;;;;;;;3.40;2.67;;;13.00;30.00;;;;;;5093848;28;20028;-37
2021/04/26 08:30:40;;;;;;;3.83;2.45;;;12.80;31.10;;;;;;5096722;28;20468;-37
2021/04/26 08:33:06;;;;;;;4.20;2.85;;;12.60;31.20;;;;;;5095849;28;20056;-37
2021/04/26 08:35:32;;;;;;;7.10;2.97;;;12.60;32.20;;;;;;5094479;28;20035;-35
2021/04/26 08:37:57;;;;;;;5.97;2.83;;;12.40;32.20;;;;;;5095576;28;20387;-36
2021/04/26 08:40:26;;;;;;;4.22;3.22;;;13.00;32.30;;;;;;5096428;28;20040;-37
2021/04/26 08:42:52;;;;;;;5.90;2.72;;;13.80;30.40;;;;;;5096184;28;20078;-36
2021/04/26 08:45:19;;;;;;;3.47;2.67;;;13.70;29.50;;;;;;5095691;28;20025;-36
2021/04/26 08:47:46;;;;;;;4.45;2.53;;;13.80;29.30;;;;;;5094247;28;20109;-36
2021/04/26 08:50:12;;;;;;;5.03;2.97;;;14.70;27.70;;;;;;5093752;28;20048;-36
2021/04/26 08:52:41;;;;;;;6.47;3.20;;;14.00;29.00;;;;;;5095977;28;20436;-37
2021/04/26 08:55:08;;;;;;;3.47;2.25;;;14.30;28.00;;;;;;5094092;28;20020;-37
2021/04/26 08:57:34;;;;;;;5.65;2.25;;;14.50;27.10;;;;;;5095369;28;20024;-37
2021/04/26 08:59:59;;;;;;;7.25;2.42;;;15.10;26.70;;;;;;5095127;28;20024;-37
2021/04/26 09:02:25;;;;;;;4.45;2.53;;;13.30;29.10;;;;;;5096232;28;20024;-37
2021/04/26 09:04:55;;;;;;;3.17;2.05;;;12.90;30.10;;;;;;5095312;28;20035;-36
2021/04/26 09:07:21;;;;;;;5.18;3.05;;;13.60;28.70;;;;;;5095023;28;20016;-37
2021/04/26 09:09:52;;;;;;;3.70;2.50;;;14.20;27.90;;;;;;5095806;28;20028;-37
2021/04/26 09:12:26;;;;;;;;;;;14.00;28.20;;;;;;5095795;28;20028;-37
2021/04/26 09:14:56;;;;;;;4.93;1.90;;;14.00;28.00;;;;;;5095038;28;20339;-36
2021/04/26 09:17:33;;;;;;;4.73;2.33;;;14.50;26.80;;;;;;5093823;28;20101;-36
2021/04/26 09:20:15;;;;;;;4.05;2.35;;;14.00;28.00;;;;;;5095129;28;20304;-37
2021/04/26 09:22:44;;;;;;;3.38;2.55;;;14.20;27.30;;;;;;5095008;28;20436;-36
2021/04/26 09:25:30;;;;;;;4.25;2.72;;;14.20;27.40;;;;;;5093323;28;20038;-36
2021/04/26 09:27:57;;;;;;;4.80;3.00;;;13.70;28.50;;;;;;5094797;28;20025;-37
2021/04/26 09:30:42;;;;;;;2.58;2.35;;;14.40;27.50;;;;;;5094654;28;20028;-37
2021/04/26 09:33:18;;;;;;;6.97;2.53;;;13.50;27.60;;;;;;5095114;28;20129;-37
2021/04/26 09:35:55;;;;;;;4.18;2.20;;;12.80;28.90;;;;;;5095388;28;20031;-37
2021/04/26 09:38:30;;;;;;;3.30;2.20;;;13.00;29.10;;;;;;5093956;28;20390;-37
2021/04/26 09:41:16;;;;;;;3.35;2.15;;;14.30;27.60;;;;;;5094513;28;20043;-37
2021/04/26 09:43:47;;;;;;;4.28;2.53;;;14.00;27.50;;;;;;5094794;28;20452;-38
2021/04/26 09:46:14;;;;;;;2.58;2.05;;;14.20;27.80;;;;;;5094197;28;20020;-38
2021/04/26 09:48:40;;;;;;;3.67;2.63;;;14.70;26.30;;;;;;5094074;28;20026;-38
2021/04/26 09:51:10;;;;;;;3.25;2.50;;;14.50;26.50;;;;;;5092543;28;20391;-38
2021/04/26 09:53:39;;;;;;;2.13;1.92;;;14.70;25.90;;;;;;5094589;28;20028;-38
2021/04/26 09:56:15;;;;;;;3.45;2.10;;;14.70;26.20;;;;;;5094182;28;20028;-36
2021/04/26 09:58:42;;;;;;;5.32;2.15;;;15.20;24.80;;;;;;5094237;28;20103;-37
2021/04/26 10:01:09;;;;;;;5.75;2.67;;;14.90;25.90;;;;;;5094462;28;20025;-40
2021/04/26 10:03:35;;;;;;;3.53;2.38;;;15.40;25.00;;;;;;5094199;28;20024;-38
2021/04/26 10:06:00;;;;;;;5.28;2.58;;;16.40;23.90;;;;;;5093874;28;20035;-37
2021/04/26 10:08:27;;;;;;;6.28;3.63;;;16.00;24.30;;;;;;5093644;28;20028;-46
2021/04/26 10:10:53;;;;;;;5.38;2.63;;;16.00;24.40;;;;;;5094200;28;20103;-37
2021/04/26 10:13:23;;;;;;;4.00;2.05;;;16.20;24.40;;;;;;5092769;28;20077;-37
2021/04/26 10:15:59;;;;;;;7.80;2.85;;;15.80;24.60;;;;;;5093930;28;20028;-37
2021/04/26 10:18:38;;;;;;;9.13;3.10;;;16.90;23.90;;;;;;5093608;28;20543;-38
2021/04/26 10:21:18;;;;;;;9.38;2.88;;;17.30;23.10;;;;;;5092372;28;20414;-38
2021/04/26 10:23:49;;;;;;;4.65;2.72;;;17.30;23.50;;;;;;5093569;28;20021;-37
2021/04/26 10:26:33;;;;;;;;;;;16.70;23.70;;;;;;5094048;28;20031;-38
2021/04/26 10:29:28;;;;;;;4.50;2.20;;;16.20;24.20;;;;;;5092255;28;19911;-36
2021/04/26 10:32:00;;;;;;;3.22;2.28;;;15.80;24.70;;;;;;5093301;28;20043;-36
2021/04/26 10:34:29;;;;;;;3.47;2.25;;;16.60;24.10;;;;;;5092955;28;20020;-38
2021/04/26 10:36:58;;;;;;;4.80;2.80;;;16.40;24.60;;;;;;5093476;28;20103;-36
2021/04/26 10:39:25;;;;;;;3.47;2.40;;;17.80;22.80;;;;;;5093722;28;20036;-38
2021/04/26 10:41:53;;;;;;;13.35;2.65;;;17.70;22.40;;;;;;5093047;28;20073;-36
2021/04/26 10:44:37;;;;;;;5.75;2.80;;;16.80;22.80;;;;;;5093026;28;20021;-37
2021/04/26 10:47:23;;;;;;;4.68;2.20;;;17.70;22.30;;;;;;5093238;28;20024;-37
2021/04/26 10:49:51;;;;;;;3.85;2.38;;;16.40;23.80;;;;;;5092625;28;20450;-37
2021/04/26 10:52:29;;;;;;;5.05;2.97;;;16.80;23.80;;;;;;5092881;28;20077;-38
2021/04/26 10:54:54;;;;;;;4.07;2.08;;;16.10;24.20;;;;;;5093891;28;20039;-38
2021/04/26 10:57:47;;;;;;;2.97;2.30;;;16.10;24.00;;;;;;5093400;28;20024;-37
2021/04/26 11:00:31;;;;;;;2.83;1.90;;;16.80;23.60;;;;;;5093319;28;20028;-37
2021/04/26 11:03:25;;;;;;;5.97;2.78;;;15.90;24.50;;;;;;5091661;28;20043;-38
2021/04/26 11:05:54;;;;;;;6.30;2.30;;;16.70;23.60;;;;;;5093128;28;20052;-38
2021/04/26 11:08:30;;;;;;;5.40;2.00;;;17.40;22.70;;;;;;5093347;28;20028;-38
2021/04/26 11:11:00;;;;;;;5.38;2.85;;;17.10;23.40;;;;;;5093536;28;20490;-39
2021/04/26 11:13:32;;;;;;;;;;;17.20;23.10;;;;;;5093719;28;20106;-38
2021/04/26 11:16:09;;;;;;;15.90;4.43;;;17.20;22.60;;;;;;5092741;28;19904;-38
2021/04/26 11:18:36;;;;;;;5.72;2.22;;;16.80;22.90;;;;;;5092410;28;20031;-36
2021/04/26 11:21:02;;;;;;;5.28;3.00;;;16.30;23.30;;;;;;5091327;28;20028;-36
2021/04/26 11:23:48;;;;;;;5.53;3.17;;;17.50;22.90;;;;;;5092987;28;20369;-37
2021/04/26 11:26:20;;;;;;;4.20;2.10;;;18.70;21.00;;;;;;5092830;28;20020;-37
2021/04/26 11:29:04;;;;;;;3.63;2.53;;;17.40;22.70;;;;;;5093361;28;20028;-37
2021/04/26 11:31:42;;;;;;;3.45;2.60;;;17.00;23.20;;;;;;5090939;28;20031;-36
2021/04/26 11:34:13;;;;;;;3.97;2.53;;;17.10;23.70;;;;;;5092581;28;20024;-37
2021/04/26 11:37:03;;;;;;;4.85;2.60;;;16.00;24.00;;;;;;5092983;28;20486;-38
2021/04/26 11:39:36;;;;;;;7.30;2.92;;;17.80;22.70;;;;;;5092407;28;20029;-37
2021/04/26 11:42:03;;;;;;;4.43;2.38;;;17.30;23.00;;;;;;5092965;28;20031;-38
2021/04/26 11:44:31;;;;;;;6.00;2.85;;;17.70;22.30;;;;;;5092879;28;20028;-37
2021/04/26 11:47:11;;;;;;;3.30;2.40;;;17.00;23.20;;;;;;5091256;28;20028;-36
2021/04/26 11:49:43;;;;;;;5.37;2.37;;;17.10;23.30;;;;;;5092863;28;20052;-37
2021/04/26 11:52:15;;;;;;;6.75;2.53;;;17.10;23.10;;;;;;5092973;28;20331;-37
2021/04/26 11:54:46;;;;;;;4.00;2.65;;;16.70;23.80;;;;;;5092403;28;20063;-38
2021/04/26 11:57:19;;;;;;;8.20;2.70;;;17.70;22.90;;;;;;5091104;28;20028;-37
2021/04/26 12:00:00;;;;;;;5.45;2.58;;;17.90;22.70;;;;;;5092187;28;20035;-37
2021/04/26 12:02:38;;;;;;;3.20;2.50;;;18.20;22.20;;;;;;5094928;28;20475;-36
2021/04/26 12:05:08;;;;;;;4.18;2.65;;;18.00;21.30;;;;;;5095532;28;20024;-37
2021/04/26 12:07:34;;;;;;;3.13;2.47;;;17.80;22.20;;;;;;5096018;28;20109;-37
2021/04/26 12:10:24;;;;;;;4.45;2.45;;;18.70;21.10;;;;;;5095175;28;20410;-37
2021/04/26 12:12:57;;;;;;;5.60;2.90;;;18.80;21.00;;;;;;5095771;28;20048;-36
2021/04/26 12:15:24;;;;;;;2.95;2.50;;;17.30;22.10;;;;;;5095386;28;20071;-37
2021/04/26 12:17:53;;;;;;;5.78;2.22;;;17.60;22.40;;;;;;5096427;28;20032;-37
2021/04/26 12:20:25;;;;;;;6.50;2.95;;;17.60;22.70;;;;;;5096272;28;20111;-37
2021/04/26 12:22:56;;;;;;;5.85;2.25;;;17.40;22.30;;;;;;5096038;28;20024;-36
2021/04/26 12:25:23;;;;;;;3.88;2.30;;;18.00;21.60;;;;;;5095635;28;20052;-36
2021/04/26 12:28:01;;;;;;;6.13;3.28;;;17.10;23.10;;;;;;5094432;28;20103;-38
2021/04/26 12:30:27;;;;;;;4.55;3.03;;;16.60;23.60;;;;;;5096619;28;20030;-37
2021/04/26 12:32:57;;;;;;;5.32;2.75;;;17.00;23.00;;;;;;5095585;28;20034;-37
2021/04/26 12:35:29;;;;;;;6.07;4.07;;;17.60;22.60;;;;;;5094697;28;20108;-37
2021/04/26 12:37:58;;;;;;;6.57;3.05;;;18.80;21.70;;;;;;5095329;28;20104;-37
2021/04/26 12:40:25;;;;;;;4.28;2.50;;;19.00;21.60;;;;;;5095483;28;20040;-36
2021/04/26 12:42:56;;;;;;;6.70;3.35;;;17.70;22.30;;;;;;5095286;28;20107;-37
2021/04/26 12:45:30;;;;;;;3.53;2.58;;;17.70;22.50;;;;;;5095627;28;20032;-36
2021/04/26 12:47:58;;;;;;;2.75;2.08;;;18.40;21.50;;;;;;5094856;28;20411;-37
2021/04/26 12:50:32;;;;;;;7.05;3.17;;;17.80;22.30;;;;;;5094883;28;20056;-36
2021/04/26 12:53:10;;;;;;;4.57;2.63;;;16.80;23.70;;;;;;5096086;28;20023;-37
2021/04/26 12:55:55;;;;;;;4.43;2.45;;;17.50;23.20;;;;;;5095834;28;20024;-37
2021/04/26 12:58:29;;;;;;;4.43;2.60;;;18.20;22.30;;;;;;5095816;28;20138;-37
2021/04/26 13:01:17;;;;;;;3.45;2.55;;;17.90;22.60;;;;;;5094736;28;20100;-37
2021/04/26 13:03:50;;;;;;;2.92;2.63;;;16.90;23.30;;;;;;5094079;28;20043;-36